South Chase, Wisconsin
Current Conditions -  °F | °C
As of 7:53 PM on Saturday 22 Nov 2014 (Local Time) from KGRB Reporting Station
Haze Haze  
Wind Chill: 34°   Ceiling: 400
Heat Index: 38°   Visibility: 1.2mi
Dew Point: 38°   Wind: 5mph
Humidity: 100%   Direction: 190°S
Pressure: 29.77"   Gusts: NA
Location:  44.6594°N, 88.2945°W
Report Text: KGRB 230153Z 19004KT 1 1/4SM BR OVC004 03/03 A2977 RMK AO2 SLP090 T00330033
Loading
Personal Weather Stations






























Interactive Weather Map New forecast layout! Learn more

10-Day Weather Forecast

Advertisements
Track Severe Weather on mobile